sensor_id;sensor_type;location;lat;lon;timestamp;P1;durP1;ratioP1;P2;durP2;ratioP2
66680;SDS011;53575;51.366;12.350;2023-07-09T00:01:57;0.10;;;0.10;;
66680;SDS011;53575;51.366;12.350;2023-07-09T00:04:22;0.10;;;0.10;;
66680;SDS011;53575;51.366;12.350;2023-07-09T00:06:48;0.10;;;0.10;;
66680;SDS011;53575;51.366;12.350;2023-07-09T00:09:14;0.10;;;0.10;;
66680;SDS011;53575;51.366;12.350;2023-07-09T00:11:42;0.03;;;0.03;;
66680;SDS011;53575;51.366;12.350;2023-07-09T00:14:12;0.10;;;0.10;;
66680;SDS011;53575;51.366;12.350;2023-07-09T00:16:39;0.10;;;0.10;;
66680;SDS011;53575;51.366;12.350;2023-07-09T00:19:11;0.10;;;0.10;;
66680;SDS011;53575;51.366;12.350;2023-07-09T00:21:41;0.10;;;0.10;;
66680;SDS011;53575;51.366;12.350;2023-07-09T00:24:10;0.10;;;0.10;;
66680;SDS011;53575;51.366;12.350;2023-07-09T00:26:38;0.10;;;0.10;;
66680;SDS011;53575;51.366;12.350;2023-07-09T00:29:09;0.15;;;0.15;;
66680;SDS011;53575;51.366;12.350;2023-07-09T00:31:35;0.10;;;0.10;;
66680;SDS011;53575;51.366;12.350;2023-07-09T00:34:04;0.10;;;0.10;;
66680;SDS011;53575;51.366;12.350;2023-07-09T00:36:30;0.10;;;0.10;;
66680;SDS011;53575;51.366;12.350;2023-07-09T00:38:57;0.10;;;0.10;;
66680;SDS011;53575;51.366;12.350;2023-07-09T00:41:24;0.10;;;0.10;;
66680;SDS011;53575;51.366;12.350;2023-07-09T00:43:51;0.10;;;0.10;;
66680;SDS011;53575;51.366;12.350;2023-07-09T00:48:48;0.10;;;0.10;;
66680;SDS011;53575;51.366;12.350;2023-07-09T00:51:18;0.10;;;0.10;;
66680;SDS011;53575;51.366;12.350;2023-07-09T00:56:12;0.10;;;0.10;;
66680;SDS011;53575;51.366;12.350;2023-07-09T00:58:40;0.10;;;0.10;;
66680;SDS011;53575;51.366;12.350;2023-07-09T01:01:11;0.10;;;0.10;;
66680;SDS011;53575;51.366;12.350;2023-07-09T01:03:47;0.10;;;0.10;;
66680;SDS011;53575;51.366;12.350;2023-07-09T01:06:16;0.10;;;0.10;;
66680;SDS011;53575;51.366;12.350;2023-07-09T01:08:55;0.17;;;0.17;;
66680;SDS011;53575;51.366;12.350;2023-07-09T01:11:21;0.10;;;0.10;;
66680;SDS011;53575;51.366;12.350;2023-07-09T01:13:47;0.10;;;0.10;;
66680;SDS011;53575;51.366;12.350;2023-07-09T01:16:16;0.10;;;0.10;;
66680;SDS011;53575;51.366;12.350;2023-07-09T01:18:42;0.15;;;0.15;;
66680;SDS011;53575;51.366;12.350;2023-07-09T01:21:09;0.10;;;0.10;;
66680;SDS011;53575;51.366;12.350;2023-07-09T01:23:43;0.20;;;0.20;;
66680;SDS011;53575;51.366;12.350;2023-07-09T01:26:10;0.10;;;0.10;;
66680;SDS011;53575;51.366;12.350;2023-07-09T01:28:37;0.10;;;0.10;;
66680;SDS011;53575;51.366;12.350;2023-07-09T01:31:06;0.10;;;0.10;;
66680;SDS011;53575;51.366;12.350;2023-07-09T01:33:32;0.10;;;0.10;;
66680;SDS011;53575;51.366;12.350;2023-07-09T01:35:58;0.10;;;0.10;;
66680;SDS011;53575;51.366;12.350;2023-07-09T01:38:25;0.10;;;0.10;;
66680;SDS011;53575;51.366;12.350;2023-07-09T01:40:55;0.10;;;0.10;;
66680;SDS011;53575;51.366;12.350;2023-07-09T01:43:21;0.10;;;0.10;;
66680;SDS011;53575;51.366;12.350;2023-07-09T01:45:47;0.10;;;0.10;;
66680;SDS011;53575;51.366;12.350;2023-07-09T01:48:15;0.10;;;0.10;;
66680;SDS011;53575;51.366;12.350;2023-07-09T01:50:41;0.10;;;0.10;;
66680;SDS011;53575;51.366;12.350;2023-07-09T01:53:09;0.10;;;0.10;;
66680;SDS011;53575;51.366;12.350;2023-07-09T01:55:36;0.20;;;0.20;;
66680;SDS011;53575;51.366;12.350;2023-07-09T01:58:02;0.10;;;0.10;;
66680;SDS011;53575;51.366;12.350;2023-07-09T02:00:31;0.10;;;0.10;;
66680;SDS011;53575;51.366;12.350;2023-07-09T02:02:57;0.10;;;0.10;;
66680;SDS011;53575;51.366;12.350;2023-07-09T02:05:25;0.10;;;0.10;;
66680;SDS011;53575;51.366;12.350;2023-07-09T02:07:51;0.17;;;0.17;;
66680;SDS011;53575;51.366;12.350;2023-07-09T02:10:17;0.10;;;0.10;;
66680;SDS011;53575;51.366;12.350;2023-07-09T02:12:43;0.10;;;0.10;;
66680;SDS011;53575;51.366;12.350;2023-07-09T02:15:08;0.10;;;0.10;;
66680;SDS011;53575;51.366;12.350;2023-07-09T02:17:34;0.10;;;0.10;;
66680;SDS011;53575;51.366;12.350;2023-07-09T02:20:00;0.10;;;0.10;;
66680;SDS011;53575;51.366;12.350;2023-07-09T02:22:25;0.10;;;0.10;;
66680;SDS011;53575;51.366;12.350;2023-07-09T02:24:51;0.10;;;0.10;;
66680;SDS011;53575;51.366;12.350;2023-07-09T02:27:18;0.10;;;0.10;;
66680;SDS011;53575;51.366;12.350;2023-07-09T02:29:44;0.13;;;0.13;;
66680;SDS011;53575;51.366;12.350;2023-07-09T02:32:10;0.10;;;0.10;;
66680;SDS011;53575;51.366;12.350;2023-07-09T02:34:46;0.13;;;0.13;;
66680;SDS011;53575;51.366;12.350;2023-07-09T02:37:14;0.10;;;0.10;;
66680;SDS011;53575;51.366;12.350;2023-07-09T02:39:40;0.10;;;0.10;;
66680;SDS011;53575;51.366;12.350;2023-07-09T02:42:08;0.10;;;0.10;;
66680;SDS011;53575;51.366;12.350;2023-07-09T02:44:37;0.10;;;0.10;;
66680;SDS011;53575;51.366;12.350;2023-07-09T02:47:02;0.10;;;0.10;;
66680;SDS011;53575;51.366;12.350;2023-07-09T02:49:28;0.10;;;0.10;;
66680;SDS011;53575;51.366;12.350;2023-07-09T02:51:53;0.17;;;0.17;;
66680;SDS011;53575;51.366;12.350;2023-07-09T02:54:19;0.10;;;0.10;;
66680;SDS011;53575;51.366;12.350;2023-07-09T02:56:44;0.10;;;0.10;;
66680;SDS011;53575;51.366;12.350;2023-07-09T02:59:10;0.10;;;0.10;;
66680;SDS011;53575;51.366;12.350;2023-07-09T03:01:36;0.10;;;0.10;;
66680;SDS011;53575;51.366;12.350;2023-07-09T03:04:02;0.13;;;0.13;;
66680;SDS011;53575;51.366;12.350;2023-07-09T03:06:28;0.10;;;0.10;;
66680;SDS011;53575;51.366;12.350;2023-07-09T03:08:57;0.10;;;0.10;;
66680;SDS011;53575;51.366;12.350;2023-07-09T03:11:23;0.10;;;0.10;;
66680;SDS011;53575;51.366;12.350;2023-07-09T03:13:48;0.10;;;0.10;;
66680;SDS011;53575;51.366;12.350;2023-07-09T03:16:14;0.10;;;0.10;;
66680;SDS011;53575;51.366;12.350;2023-07-09T03:18:40;0.10;;;0.10;;
66680;SDS011;53575;51.366;12.350;2023-07-09T03:21:06;0.20;;;0.20;;
66680;SDS011;53575;51.366;12.350;2023-07-09T03:23:31;0.10;;;0.10;;
66680;SDS011;53575;51.366;12.350;2023-07-09T03:25:57;0.10;;;0.10;;
66680;SDS011;53575;51.366;12.350;2023-07-09T03:28:24;0.10;;;0.10;;
66680;SDS011;53575;51.366;12.350;2023-07-09T03:30:52;0.10;;;0.10;;
66680;SDS011;53575;51.366;12.350;2023-07-09T03:35:44;0.10;;;0.10;;
66680;SDS011;53575;51.366;12.350;2023-07-09T03:38:11;0.10;;;0.10;;
66680;SDS011;53575;51.366;12.350;2023-07-09T03:40:37;0.10;;;0.10;;
66680;SDS011;53575;51.366;12.350;2023-07-09T03:43:03;0.20;;;0.20;;
66680;SDS011;53575;51.366;12.350;2023-07-09T03:45:30;0.10;;;0.10;;
66680;SDS011;53575;51.366;12.350;2023-07-09T03:47:55;0.10;;;0.10;;
66680;SDS011;53575;51.366;12.350;2023-07-09T03:50:21;0.10;;;0.10;;
66680;SDS011;53575;51.366;12.350;2023-07-09T03:52:47;0.10;;;0.10;;
66680;SDS011;53575;51.366;12.350;2023-07-09T03:55:13;0.10;;;0.10;;
66680;SDS011;53575;51.366;12.350;2023-07-09T03:57:39;0.10;;;0.10;;
66680;SDS011;53575;51.366;12.350;2023-07-09T04:00:05;0.10;;;0.10;;
66680;SDS011;53575;51.366;12.350;2023-07-09T04:02:31;0.20;;;0.20;;
66680;SDS011;53575;51.366;12.350;2023-07-09T04:04:56;0.13;;;0.13;;
66680;SDS011;53575;51.366;12.350;2023-07-09T04:07:22;0.10;;;0.10;;
66680;SDS011;53575;51.366;12.350;2023-07-09T04:09:48;0.10;;;0.10;;
66680;SDS011;53575;51.366;12.350;2023-07-09T04:12:13;0.10;;;0.10;;
66680;SDS011;53575;51.366;12.350;2023-07-09T04:14:39;0.10;;;0.10;;
66680;SDS011;53575;51.366;12.350;2023-07-09T04:17:05;0.10;;;0.10;;
66680;SDS011;53575;51.366;12.350;2023-07-09T04:19:31;0.10;;;0.10;;
66680;SDS011;53575;51.366;12.350;2023-07-09T04:21:56;0.15;;;0.15;;
66680;SDS011;53575;51.366;12.350;2023-07-09T04:24:22;0.10;;;0.10;;
66680;SDS011;53575;51.366;12.350;2023-07-09T04:26:47;0.10;;;0.10;;
66680;SDS011;53575;51.366;12.350;2023-07-09T04:29:13;0.15;;;0.15;;
66680;SDS011;53575;51.366;12.350;2023-07-09T04:31:39;0.10;;;0.10;;
66680;SDS011;53575;51.366;12.350;2023-07-09T04:34:06;0.10;;;0.10;;
66680;SDS011;53575;51.366;12.350;2023-07-09T04:36:33;0.10;;;0.10;;
66680;SDS011;53575;51.366;12.350;2023-07-09T04:38:58;0.10;;;0.10;;
66680;SDS011;53575;51.366;12.350;2023-07-09T04:41:24;0.10;;;0.10;;
66680;SDS011;53575;51.366;12.350;2023-07-09T04:43:50;0.10;;;0.10;;
66680;SDS011;53575;51.366;12.350;2023-07-09T04:46:16;0.10;;;0.10;;
66680;SDS011;53575;51.366;12.350;2023-07-09T04:48:41;0.10;;;0.10;;
66680;SDS011;53575;51.366;12.350;2023-07-09T04:51:07;0.10;;;0.10;;
66680;SDS011;53575;51.366;12.350;2023-07-09T04:53:33;0.10;;;0.10;;
66680;SDS011;53575;51.366;12.350;2023-07-09T04:55:58;0.10;;;0.10;;
66680;SDS011;53575;51.366;12.350;2023-07-09T04:58:23;0.10;;;0.10;;
66680;SDS011;53575;51.366;12.350;2023-07-09T05:00:49;0.10;;;0.10;;
66680;SDS011;53575;51.366;12.350;2023-07-09T05:03:16;0.10;;;0.10;;
66680;SDS011;53575;51.366;12.350;2023-07-09T05:05:46;0.10;;;0.10;;
66680;SDS011;53575;51.366;12.350;2023-07-09T05:08:12;0.10;;;0.10;;
66680;SDS011;53575;51.366;12.350;2023-07-09T05:10:42;0.10;;;0.10;;
66680;SDS011;53575;51.366;12.350;2023-07-09T05:13:08;0.10;;;0.10;;
66680;SDS011;53575;51.366;12.350;2023-07-09T05:15:34;0.10;;;0.10;;
66680;SDS011;53575;51.366;12.350;2023-07-09T05:18:00;0.10;;;0.10;;
66680;SDS011;53575;51.366;12.350;2023-07-09T05:20:25;0.10;;;0.10;;
66680;SDS011;53575;51.366;12.350;2023-07-09T05:22:51;0.10;;;0.10;;
66680;SDS011;53575;51.366;12.350;2023-07-09T05:25:16;0.10;;;0.10;;
66680;SDS011;53575;51.366;12.350;2023-07-09T05:27:42;0.10;;;0.10;;
66680;SDS011;53575;51.366;12.350;2023-07-09T05:30:08;0.10;;;0.10;;
66680;SDS011;53575;51.366;12.350;2023-07-09T05:32:34;0.10;;;0.10;;
66680;SDS011;53575;51.366;12.350;2023-07-09T05:35:01;1.00;;;1.00;;
66680;SDS011;53575;51.366;12.350;2023-07-09T05:37:26;0.13;;;0.13;;
66680;SDS011;53575;51.366;12.350;2023-07-09T05:39:52;0.20;;;0.20;;
66680;SDS011;53575;51.366;12.350;2023-07-09T05:42:17;1.40;;;1.40;;
66680;SDS011;53575;51.366;12.350;2023-07-09T05:44:43;0.10;;;0.10;;
66680;SDS011;53575;51.366;12.350;2023-07-09T05:47:08;0.20;;;0.20;;
66680;SDS011;53575;51.366;12.350;2023-07-09T05:49:33;0.10;;;0.10;;
66680;SDS011;53575;51.366;12.350;2023-07-09T05:51:59;0.10;;;0.10;;
66680;SDS011;53575;51.366;12.350;2023-07-09T05:54:24;0.10;;;0.10;;
66680;SDS011;53575;51.366;12.350;2023-07-09T05:56:50;0.10;;;0.10;;
66680;SDS011;53575;51.366;12.350;2023-07-09T05:59:16;0.10;;;0.10;;
66680;SDS011;53575;51.366;12.350;2023-07-09T06:01:41;0.10;;;0.10;;
66680;SDS011;53575;51.366;12.350;2023-07-09T06:04:07;0.10;;;0.10;;
66680;SDS011;53575;51.366;12.350;2023-07-09T06:06:32;0.10;;;0.10;;
66680;SDS011;53575;51.366;12.350;2023-07-09T06:08:58;0.10;;;0.10;;
66680;SDS011;53575;51.366;12.350;2023-07-09T06:11:23;1.85;;;1.80;;
66680;SDS011;53575;51.366;12.350;2023-07-09T06:13:49;0.10;;;0.10;;
66680;SDS011;53575;51.366;12.350;2023-07-09T06:16:14;0.10;;;0.10;;
66680;SDS011;53575;51.366;12.350;2023-07-09T06:18:40;0.10;;;0.10;;
66680;SDS011;53575;51.366;12.350;2023-07-09T06:21:05;0.10;;;0.10;;
66680;SDS011;53575;51.366;12.350;2023-07-09T06:23:32;0.10;;;0.10;;
66680;SDS011;53575;51.366;12.350;2023-07-09T06:25:58;0.10;;;0.10;;
66680;SDS011;53575;51.366;12.350;2023-07-09T06:28:24;0.10;;;0.10;;
66680;SDS011;53575;51.366;12.350;2023-07-09T06:30:51;0.10;;;0.10;;
66680;SDS011;53575;51.366;12.350;2023-07-09T06:33:17;0.10;;;0.10;;
66680;SDS011;53575;51.366;12.350;2023-07-09T06:35:50;0.10;;;0.10;;
66680;SDS011;53575;51.366;12.350;2023-07-09T06:38:17;0.10;;;0.10;;
66680;SDS011;53575;51.366;12.350;2023-07-09T06:40:43;0.10;;;0.10;;
66680;SDS011;53575;51.366;12.350;2023-07-09T06:43:09;0.10;;;0.10;;
66680;SDS011;53575;51.366;12.350;2023-07-09T06:45:35;0.10;;;0.10;;
66680;SDS011;53575;51.366;12.350;2023-07-09T06:48:01;0.10;;;0.10;;
66680;SDS011;53575;51.366;12.350;2023-07-09T06:50:27;0.10;;;0.10;;
66680;SDS011;53575;51.366;12.350;2023-07-09T06:52:53;0.10;;;0.10;;
66680;SDS011;53575;51.366;12.350;2023-07-09T06:55:18;0.10;;;0.10;;
66680;SDS011;53575;51.366;12.350;2023-07-09T06:57:44;0.10;;;0.10;;
66680;SDS011;53575;51.366;12.350;2023-07-09T07:00:10;0.10;;;0.10;;
66680;SDS011;53575;51.366;12.350;2023-07-09T07:02:36;0.10;;;0.10;;
66680;SDS011;53575;51.366;12.350;2023-07-09T07:05:01;0.10;;;0.10;;
66680;SDS011;53575;51.366;12.350;2023-07-09T07:07:27;0.10;;;0.10;;
66680;SDS011;53575;51.366;12.350;2023-07-09T07:09:53;0.10;;;0.10;;
66680;SDS011;53575;51.366;12.350;2023-07-09T07:12:28;0.10;;;0.10;;
66680;SDS011;53575;51.366;12.350;2023-07-09T07:14:54;0.10;;;0.10;;
66680;SDS011;53575;51.366;12.350;2023-07-09T07:17:20;0.10;;;0.10;;
66680;SDS011;53575;51.366;12.350;2023-07-09T07:19:47;0.10;;;0.10;;
66680;SDS011;53575;51.366;12.350;2023-07-09T07:22:13;0.10;;;0.10;;
66680;SDS011;53575;51.366;12.350;2023-07-09T07:24:38;0.10;;;0.10;;
66680;SDS011;53575;51.366;12.350;2023-07-09T07:27:04;0.10;;;0.10;;
66680;SDS011;53575;51.366;12.350;2023-07-09T07:29:29;0.10;;;0.10;;
66680;SDS011;53575;51.366;12.350;2023-07-09T07:31:55;0.10;;;0.10;;
66680;SDS011;53575;51.366;12.350;2023-07-09T07:34:20;0.10;;;0.10;;
66680;SDS011;53575;51.366;12.350;2023-07-09T07:36:47;0.10;;;0.10;;
66680;SDS011;53575;51.366;12.350;2023-07-09T07:39:14;0.10;;;0.10;;
66680;SDS011;53575;51.366;12.350;2023-07-09T07:41:40;0.10;;;0.10;;
66680;SDS011;53575;51.366;12.350;2023-07-09T07:44:05;0.10;;;0.10;;
66680;SDS011;53575;51.366;12.350;2023-07-09T07:46:32;0.10;;;0.10;;
66680;SDS011;53575;51.366;12.350;2023-07-09T07:48:58;0.10;;;0.10;;
66680;SDS011;53575;51.366;12.350;2023-07-09T07:51:24;0.10;;;0.10;;
66680;SDS011;53575;51.366;12.350;2023-07-09T07:53:50;0.00;;;0.00;;
66680;SDS011;53575;51.366;12.350;2023-07-09T07:56:15;0.10;;;0.10;;
66680;SDS011;53575;51.366;12.350;2023-07-09T07:58:41;0.10;;;0.10;;
66680;SDS011;53575;51.366;12.350;2023-07-09T08:01:06;0.10;;;0.10;;
66680;SDS011;53575;51.366;12.350;2023-07-09T08:03:32;0.10;;;0.10;;
66680;SDS011;53575;51.366;12.350;2023-07-09T08:05:57;0.10;;;0.10;;
66680;SDS011;53575;51.366;12.350;2023-07-09T08:08:23;0.10;;;0.10;;
66680;SDS011;53575;51.366;12.350;2023-07-09T08:10:51;0.10;;;0.10;;
66680;SDS011;53575;51.366;12.350;2023-07-09T08:13:17;0.10;;;0.10;;
66680;SDS011;53575;51.366;12.350;2023-07-09T08:15:42;0.10;;;0.10;;
66680;SDS011;53575;51.366;12.350;2023-07-09T08:18:09;0.10;;;0.10;;
66680;SDS011;53575;51.366;12.350;2023-07-09T08:20:35;0.00;;;0.00;;
66680;SDS011;53575;51.366;12.350;2023-07-09T08:23:00;0.10;;;0.10;;
66680;SDS011;53575;51.366;12.350;2023-07-09T08:25:26;0.10;;;0.10;;
66680;SDS011;53575;51.366;12.350;2023-07-09T08:27:52;0.10;;;0.10;;
66680;SDS011;53575;51.366;12.350;2023-07-09T08:30:17;0.10;;;0.10;;
66680;SDS011;53575;51.366;12.350;2023-07-09T08:32:43;0.00;;;0.00;;
66680;SDS011;53575;51.366;12.350;2023-07-09T08:35:08;0.00;;;0.00;;
66680;SDS011;53575;51.366;12.350;2023-07-09T08:37:35;0.10;;;0.10;;
66680;SDS011;53575;51.366;12.350;2023-07-09T08:40:00;0.00;;;0.00;;
66680;SDS011;53575;51.366;12.350;2023-07-09T08:42:31;0.00;;;0.00;;
66680;SDS011;53575;51.366;12.350;2023-07-09T08:50:45;0.00;;;0.00;;
66680;SDS011;53575;51.366;12.350;2023-07-09T08:53:19;0.00;;;0.00;;
66680;SDS011;53575;51.366;12.350;2023-07-09T08:55:57;0.00;;;0.00;;
66680;SDS011;53575;51.366;12.350;2023-07-09T08:58:24;0.17;;;0.17;;
66680;SDS011;53575;51.366;12.350;2023-07-09T09:00:56;0.00;;;0.00;;
66680;SDS011;53575;51.366;12.350;2023-07-09T09:03:30;0.00;;;0.00;;
66680;SDS011;53575;51.366;12.350;2023-07-09T09:06:25;0.08;;;0.08;;
66680;SDS011;53575;51.366;12.350;2023-07-09T09:11:41;0.00;;;0.00;;
66680;SDS011;53575;51.366;12.350;2023-07-09T09:14:27;0.00;;;0.00;;
66680;SDS011;53575;51.366;12.350;2023-07-09T09:16:54;0.00;;;0.00;;
66680;SDS011;53575;51.366;12.350;2023-07-09T09:19:45;0.03;;;0.03;;
66680;SDS011;53575;51.366;12.350;2023-07-09T09:22:15;0.00;;;0.00;;
66680;SDS011;53575;51.366;12.350;2023-07-09T09:24:58;0.00;;;0.00;;
66680;SDS011;53575;51.366;12.350;2023-07-09T09:27:30;0.10;;;0.10;;
66680;SDS011;53575;51.366;12.350;2023-07-09T09:29:56;0.05;;;0.05;;
66680;SDS011;53575;51.366;12.350;2023-07-09T09:32:23;0.00;;;0.00;;
66680;SDS011;53575;51.366;12.350;2023-07-09T09:34:54;0.00;;;0.00;;
66680;SDS011;53575;51.366;12.350;2023-07-09T09:37:26;0.00;;;0.00;;
66680;SDS011;53575;51.366;12.350;2023-07-09T09:39:58;0.00;;;0.00;;
66680;SDS011;53575;51.366;12.350;2023-07-09T09:42:25;0.00;;;0.00;;
66680;SDS011;53575;51.366;12.350;2023-07-09T09:44:53;0.00;;;0.00;;
66680;SDS011;53575;51.366;12.350;2023-07-09T09:47:20;0.00;;;0.00;;
66680;SDS011;53575;51.366;12.350;2023-07-09T09:49:45;0.00;;;0.00;;
66680;SDS011;53575;51.366;12.350;2023-07-09T09:52:15;0.00;;;0.00;;
66680;SDS011;53575;51.366;12.350;2023-07-09T09:54:47;0.00;;;0.00;;
66680;SDS011;53575;51.366;12.350;2023-07-09T09:57:27;0.03;;;0.03;;
66680;SDS011;53575;51.366;12.350;2023-07-09T09:59:53;0.00;;;0.00;;
66680;SDS011;53575;51.366;12.350;2023-07-09T10:02:21;0.00;;;0.00;;
66680;SDS011;53575;51.366;12.350;2023-07-09T10:04:49;0.00;;;0.00;;
66680;SDS011;53575;51.366;12.350;2023-07-09T10:09:52;0.00;;;0.00;;
66680;SDS011;53575;51.366;12.350;2023-07-09T10:15:24;0.00;;;0.00;;
66680;SDS011;53575;51.366;12.350;2023-07-09T10:18:25;0.00;;;0.00;;
66680;SDS011;53575;51.366;12.350;2023-07-09T10:27:09;0.00;;;0.00;;
66680;SDS011;53575;51.366;12.350;2023-07-09T10:35:05;0.00;;;0.00;;
66680;SDS011;53575;51.366;12.350;2023-07-09T10:37:44;0.10;;;0.10;;
66680;SDS011;53575;51.366;12.350;2023-07-09T10:40:13;0.00;;;0.00;;
66680;SDS011;53575;51.366;12.350;2023-07-09T10:42:46;0.00;;;0.00;;
66680;SDS011;53575;51.366;12.350;2023-07-09T10:45:22;0.00;;;0.00;;
66680;SDS011;53575;51.366;12.350;2023-07-09T10:47:55;0.38;;;0.38;;
66680;SDS011;53575;51.366;12.350;2023-07-09T10:53:09;0.00;;;0.00;;
66680;SDS011;53575;51.366;12.350;2023-07-09T10:55:42;0.00;;;0.00;;
66680;SDS011;53575;51.366;12.350;2023-07-09T11:00:48;0.00;;;0.00;;
66680;SDS011;53575;51.366;12.350;2023-07-09T11:03:16;0.00;;;0.00;;
66680;SDS011;53575;51.366;12.350;2023-07-09T11:05:45;0.00;;;0.00;;
66680;SDS011;53575;51.366;12.350;2023-07-09T11:08:45;0.00;;;0.00;;
66680;SDS011;53575;51.366;12.350;2023-07-09T11:11:06;0.00;;;0.00;;
66680;SDS011;53575;51.366;12.350;2023-07-09T11:13:42;0.00;;;0.00;;
66680;SDS011;53575;51.366;12.350;2023-07-09T11:19:00;0.00;;;0.00;;
66680;SDS011;53575;51.366;12.350;2023-07-09T11:21:27;0.00;;;0.00;;
66680;SDS011;53575;51.366;12.350;2023-07-09T11:23:54;0.00;;;0.00;;
66680;SDS011;53575;51.366;12.350;2023-07-09T11:28:53;0.20;;;0.20;;
66680;SDS011;53575;51.366;12.350;2023-07-09T11:31:24;0.00;;;0.00;;
66680;SDS011;53575;51.366;12.350;2023-07-09T11:34:20;0.00;;;0.00;;
66680;SDS011;53575;51.366;12.350;2023-07-09T11:37:08;0.00;;;0.00;;
66680;SDS011;53575;51.366;12.350;2023-07-09T11:42:02;0.00;;;0.00;;
66680;SDS011;53575;51.366;12.350;2023-07-09T11:44:32;0.00;;;0.00;;
66680;SDS011;53575;51.366;12.350;2023-07-09T11:47:01;0.00;;;0.00;;
66680;SDS011;53575;51.366;12.350;2023-07-09T11:49:27;0.00;;;0.00;;
66680;SDS011;53575;51.366;12.350;2023-07-09T11:51:59;0.00;;;0.00;;
66680;SDS011;53575;51.366;12.350;2023-07-09T11:54:33;0.00;;;0.00;;
66680;SDS011;53575;51.366;12.350;2023-07-09T11:57:00;0.00;;;0.00;;
66680;SDS011;53575;51.366;12.350;2023-07-09T11:59:27;0.55;;;0.52;;
66680;SDS011;53575;51.366;12.350;2023-07-09T12:01:53;0.00;;;0.00;;
66680;SDS011;53575;51.366;12.350;2023-07-09T12:04:25;0.75;;;0.75;;
66680;SDS011;53575;51.366;12.350;2023-07-09T12:06:59;0.00;;;0.00;;
66680;SDS011;53575;51.366;12.350;2023-07-09T12:09:30;0.00;;;0.00;;
66680;SDS011;53575;51.366;12.350;2023-07-09T12:12:02;0.00;;;0.00;;
66680;SDS011;53575;51.366;12.350;2023-07-09T12:14:28;0.00;;;0.00;;
66680;SDS011;53575;51.366;12.350;2023-07-09T12:16:53;0.00;;;0.00;;
66680;SDS011;53575;51.366;12.350;2023-07-09T12:19:20;0.00;;;0.00;;
66680;SDS011;53575;51.366;12.350;2023-07-09T12:26:49;0.00;;;0.00;;
66680;SDS011;53575;51.366;12.350;2023-07-09T12:29:17;0.03;;;0.03;;
66680;SDS011;53575;51.366;12.350;2023-07-09T12:31:42;0.00;;;0.00;;
66680;SDS011;53575;51.366;12.350;2023-07-09T12:34:14;0.00;;;0.00;;
66680;SDS011;53575;51.366;12.350;2023-07-09T12:36:46;0.00;;;0.00;;
66680;SDS011;53575;51.366;12.350;2023-07-09T12:39:15;0.00;;;0.00;;
66680;SDS011;53575;51.366;12.350;2023-07-09T12:41:43;0.00;;;0.00;;
66680;SDS011;53575;51.366;12.350;2023-07-09T12:44:17;0.07;;;0.07;;
66680;SDS011;53575;51.366;12.350;2023-07-09T12:46:44;0.00;;;0.00;;
66680;SDS011;53575;51.366;12.350;2023-07-09T12:49:20;0.00;;;0.00;;
66680;SDS011;53575;51.366;12.350;2023-07-09T12:51:50;0.00;;;0.00;;
66680;SDS011;53575;51.366;12.350;2023-07-09T12:54:17;0.00;;;0.00;;
66680;SDS011;53575;51.366;12.350;2023-07-09T12:56:44;0.00;;;0.00;;
66680;SDS011;53575;51.366;12.350;2023-07-09T12:59:24;0.00;;;0.00;;
66680;SDS011;53575;51.366;12.350;2023-07-09T13:01:59;0.00;;;0.00;;
66680;SDS011;53575;51.366;12.350;2023-07-09T13:04:31;0.00;;;0.00;;
66680;SDS011;53575;51.366;12.350;2023-07-09T13:07:02;0.00;;;0.00;;
66680;SDS011;53575;51.366;12.350;2023-07-09T13:09:29;0.20;;;0.20;;
66680;SDS011;53575;51.366;12.350;2023-07-09T13:11:55;0.00;;;0.00;;
66680;SDS011;53575;51.366;12.350;2023-07-09T13:14:26;0.00;;;0.00;;
66680;SDS011;53575;51.366;12.350;2023-07-09T13:17:01;0.00;;;0.00;;
66680;SDS011;53575;51.366;12.350;2023-07-09T13:19:30;1.45;;;1.08;;
66680;SDS011;53575;51.366;12.350;2023-07-09T13:21:56;8.00;;;5.13;;
66680;SDS011;53575;51.366;12.350;2023-07-09T13:24:25;6.38;;;4.53;;
66680;SDS011;53575;51.366;12.350;2023-07-09T13:26:54;5.70;;;4.25;;
66680;SDS011;53575;51.366;12.350;2023-07-09T13:29:23;7.22;;;4.85;;
66680;SDS011;53575;51.366;12.350;2023-07-09T13:31:48;5.05;;;3.83;;
66680;SDS011;53575;51.366;12.350;2023-07-09T13:34:24;0.00;;;0.00;;
66680;SDS011;53575;51.366;12.350;2023-07-09T13:37:00;3.85;;;3.03;;
66680;SDS011;53575;51.366;12.350;2023-07-09T13:39:25;5.78;;;4.15;;
66680;SDS011;53575;51.366;12.350;2023-07-09T13:41:51;6.65;;;4.25;;
66680;SDS011;53575;51.366;12.350;2023-07-09T13:44:21;8.55;;;4.15;;
66680;SDS011;53575;51.366;12.350;2023-07-09T13:46:56;6.28;;;5.13;;
66680;SDS011;53575;51.366;12.350;2023-07-09T13:49:23;7.28;;;3.95;;
66680;SDS011;53575;51.366;12.350;2023-07-09T13:51:53;9.32;;;4.50;;
66680;SDS011;53575;51.366;12.350;2023-07-09T13:54:28;5.05;;;4.22;;
66680;SDS011;53575;51.366;12.350;2023-07-09T13:57:03;8.65;;;5.22;;
66680;SDS011;53575;51.366;12.350;2023-07-09T14:01:56;6.60;;;5.55;;
66680;SDS011;53575;51.366;12.350;2023-07-09T14:04:25;5.10;;;3.92;;
66680;SDS011;53575;51.366;12.350;2023-07-09T14:06:51;7.88;;;4.40;;
66680;SDS011;53575;51.366;12.350;2023-07-09T14:09:17;8.32;;;4.60;;
66680;SDS011;53575;51.366;12.350;2023-07-09T14:14:20;6.30;;;4.97;;
66680;SDS011;53575;51.366;12.350;2023-07-09T14:16:48;6.15;;;4.47;;
66680;SDS011;53575;51.366;12.350;2023-07-09T14:19:16;8.20;;;4.15;;
66680;SDS011;53575;51.366;12.350;2023-07-09T14:21:43;11.93;;;4.43;;
66680;SDS011;53575;51.366;12.350;2023-07-09T14:24:19;5.57;;;3.85;;
66680;SDS011;53575;51.366;12.350;2023-07-09T14:26:51;7.20;;;4.15;;
66680;SDS011;53575;51.366;12.350;2023-07-09T14:29:17;6.15;;;3.80;;
66680;SDS011;53575;51.366;12.350;2023-07-09T14:31:46;5.35;;;4.47;;
66680;SDS011;53575;51.366;12.350;2023-07-09T14:34:28;9.83;;;4.47;;
66680;SDS011;53575;51.366;12.350;2023-07-09T14:36:57;5.30;;;3.90;;
66680;SDS011;53575;51.366;12.350;2023-07-09T14:39:26;5.13;;;4.30;;
66680;SDS011;53575;51.366;12.350;2023-07-09T14:41:52;7.30;;;4.32;;
66680;SDS011;53575;51.366;12.350;2023-07-09T14:44:27;5.07;;;4.05;;
66680;SDS011;53575;51.366;12.350;2023-07-09T14:46:55;7.88;;;3.92;;
66680;SDS011;53575;51.366;12.350;2023-07-09T14:49:22;4.88;;;4.15;;
66680;SDS011;53575;51.366;12.350;2023-07-09T14:51:49;6.47;;;4.72;;
66680;SDS011;53575;51.366;12.350;2023-07-09T14:56:52;8.18;;;4.72;;
66680;SDS011;53575;51.366;12.350;2023-07-09T14:59:18;9.57;;;4.30;;
66680;SDS011;53575;51.366;12.350;2023-07-09T15:01:44;6.60;;;4.45;;
66680;SDS011;53575;51.366;12.350;2023-07-09T15:06:50;5.80;;;4.55;;
66680;SDS011;53575;51.366;12.350;2023-07-09T15:09:18;6.00;;;4.78;;
66680;SDS011;53575;51.366;12.350;2023-07-09T15:11:46;5.60;;;4.70;;
66680;SDS011;53575;51.366;12.350;2023-07-09T15:14:14;7.35;;;4.32;;
66680;SDS011;53575;51.366;12.350;2023-07-09T15:16:40;8.70;;;4.63;;
66680;SDS011;53575;51.366;12.350;2023-07-09T15:19:16;7.85;;;4.38;;
66680;SDS011;53575;51.366;12.350;2023-07-09T15:21:43;6.22;;;4.60;;
66680;SDS011;53575;51.366;12.350;2023-07-09T15:26:46;6.70;;;4.30;;
66680;SDS011;53575;51.366;12.350;2023-07-09T15:29:14;7.93;;;5.22;;
66680;SDS011;53575;51.366;12.350;2023-07-09T15:31:43;16.02;;;12.35;;
66680;SDS011;53575;51.366;12.350;2023-07-09T15:34:08;9.13;;;5.93;;
66680;SDS011;53575;51.366;12.350;2023-07-09T15:36:34;5.43;;;4.50;;
66680;SDS011;53575;51.366;12.350;2023-07-09T15:38:59;7.57;;;4.88;;
66680;SDS011;53575;51.366;12.350;2023-07-09T15:41:25;8.27;;;4.97;;
66680;SDS011;53575;51.366;12.350;2023-07-09T15:43:50;7.13;;;4.35;;